Aviation Digital Data Service (ADDS)

Output produced by TAFs form (0934 UTC 25 November 2017)
found at http://www.aviationweather.gov/adds/tafs/
 
METAR text: ZSPD 250900Z 19004MPS CAVOK 13/05 Q1025 NOSIG
Conditions at: ZSPD (SHANGHAI/PUDONG , CN) observed 0900 UTC 25 November 2017
Temperature: 13.0°C (55°F)
Dewpoint: 5.0°C (41°F) [RH = 58%]
Pressure (altimeter): 30.27 inches Hg (1025.0 mb)
Winds: from the S (190 degrees) at 9 MPH (8 knots; 4.2 m/s)
Visibility: 6 or more miles (10+ km)
Ceiling: ceiling and visibility are OK
Clouds: unknown
Weather: no significant weather observed at this time

Forecast for: ZSPD (SHANGHAI/PUDONG , CN)
Text: TAF ZSPD 250327Z 2506/2606 21004MPS 5000 BR SCT020 TX16/2506Z TN08/2521Z
Forecast period: 0600 to 1600 UTC 25 November 2017
Forecast type: FROM: standard forecast or significant change
Winds: from the SSW (210 degrees) at 9 MPH (8 knots; 4.2 m/s)
Visibility: 3 miles (5 km)
Clouds: scattered clouds at 2000 feet AGL
Weather: BR  (mist)
Text: BECMG 2516/2518 32004MPS
Forecast period: 1600 UTC 25 November 2017 to 0600 UTC 26 November 2017
Forecast type: BECOMING: Conditions expected to become as follows by 1800 UTC 25 November 2017
Winds: from the NW (320 degrees) at 9 MPH (8 knots; 4.2 m/s)
Visibility: 3 miles (5 km)
Clouds: scattered clouds at 2000 feet AGL
Weather: BR  (mist)